Serenea — SVAC6 — position and weather

sailwx.info

Track history (hours):
 
Tides and Currents Weather Stations Pressure Air Temp Water Temp Dewpoint Dewpoint Depression Visibility Wind Speed Wind Dir Waves Ship Positions

Serenea

Last reported at 2017-Sep-26 01:30 UTC. Time now 2017-Sep-26 01:56 UTC.
Position N 49°28' E 000°09'.

Length 274 m; draft 15 m.

Type: Tanker. MMSI: 240797000.

Date/timePositionNaut miles runAvg speedWind from/ knotsBaromVisibWave heightAir tempDewpointWater temp
2017-Sep-26 01:30N 49°28' E 000°09'0 0.0
2017-Sep-26 01:00N 49°28' E 000°09'0 0.6
2017-Sep-26 00:30N 49°28' E 000°10'2 4.2
2017-Sep-26 00:00N 49°29' E 000°06'5 9.0
2017-Sep-25 23:30N 49°30' W 000°00'713.2
2017-Sep-25 23:01N 49°32' W 000°10'4 7.2
2017-Sep-25 22:30N 49°34' W 000°14'611.5
2017-Sep-25 22:00N 49°36' W 000°23'8911.7
2017-Sep-25 14:25N 49°53' W 002°38'512.8
2017-Sep-25 14:00N 49°51' W 002°46'612.9
2017-Sep-25 13:30N 49°49' W 002°55'713.3
2017-Sep-25 13:00N 49°46' W 003°04'713.3
2017-Sep-25 12:30N 49°43' W 003°13'713.4
2017-Sep-25 12:00N 49°39' W 003°22'1213.5
2017-Sep-25 11:09N 49°33' W 003°37'713.6
2017-Sep-25 10:38N 49°30' W 003°47'313.6
2017-Sep-25 10:26N 49°29' W 003°50'2614.0
2017-Sep-25 08:34N 49°16' W 004°25'314.3
2017-Sep-25 08:21N 49°14' W 004°29'614.3
2017-Sep-25 07:54N 49°12' W 004°38'613.9
2017-Sep-25 07:30N 49°08' W 004°45'714.4
2017-Sep-25 06:59N 49°04' W 004°55'613.2
2017-Sep-25 06:30N 49°01' W 005°03'511.0
2017-Sep-25 06:00N 48°58' W 005°10'510.5
2017-Sep-25 05:30N 48°56' W 005°17'510.1
2017-Sep-25 05:00N 48°53' W 005°24'5 9.7
2017-Sep-25 04:30N 48°50' W 005°30'5 9.6
2017-Sep-25 03:58N 48°47' W 005°36'612.5
2017-Sep-25 03:30N 48°42' W 005°40'713.1
2017-Sep-25 03:00N 48°36' W 005°45'712.9
2017-Sep-25 02:26N 48°30' W 005°51'912.5
2017-Sep-25 01:41N 48°22' W 005°58'412.4
2017-Sep-25 01:21N 48°18' W 006°01'  
2017-Sep-20 23:09N 28°43' W 014°43'413.0
2017-Sep-20 22:51N 28°39' W 014°44'513.0
2017-Sep-20 22:30N 28°35' W 014°45'612.9
2017-Sep-20 22:00N 28°29' W 014°47'612.6
2017-Sep-20 21:30N 28°23' W 014°49'612.9
2017-Sep-20 21:00N 28°17' W 014°51'612.9
2017-Sep-20 20:30N 28°11' W 014°54'612.6
2017-Sep-20 20:00N 28°05' W 014°56'713.0
2017-Sep-20 19:30N 27°59' W 014°59'713.1
2017-Sep-20 19:00N 27°52' W 015°01'612.6
2017-Sep-20 18:30N 27°47' W 015°04'612.7
2017-Sep-20 18:00N 27°41' W 015°08'713.2
2017-Sep-20 17:30N 27°36' W 015°12'7013.2
2017-Sep-20 12:11N 26°36' W 015°54'6413.2
2017-Sep-20 07:22N 25°42' W 016°31'11212.8
2017-Sep-19 22:36N 23°57' W 017°16'112.9
2017-Sep-19 22:30N 23°56' W 017°16'4313.1
2017-Sep-19 19:15N 23°14' W 017°27'313.2
2017-Sep-19 19:00N 23°11' W 017°27'4313.3
2017-Sep-19 15:46N 22°29' W 017°38'  
Track history (hours):
 
Tides and Currents Weather Stations Pressure Air Temp Water Temp Dewpoint Dewpoint Depression Visibility Wind Speed Wind Dir Waves Ship Positions

Serenea

Last reported at 2017-Sep-26 01:30 UTC. Time now 2017-Sep-26 01:56 UTC.
Position N 49°28' E 000°09'.

Length 274 m; draft 15 m.

Type: Tanker. MMSI: 240797000.

Date/timePositionNaut miles runAvg speedWind from/ knotsBaromVisibWave heightAir tempDewpointWater temp
2017-Sep-26 01:30N 49°28' E 000°09'0 0.0
2017-Sep-26 01:00N 49°28' E 000°09'0 0.6
2017-Sep-26 00:30N 49°28' E 000°10'2 4.2
2017-Sep-26 00:00N 49°29' E 000°06'5 9.0
2017-Sep-25 23:30N 49°30' W 000°00'713.2
2017-Sep-25 23:01N 49°32' W 000°10'4 7.2
2017-Sep-25 22:30N 49°34' W 000°14'611.5
2017-Sep-25 22:00N 49°36' W 000°23'8911.7
2017-Sep-25 14:25N 49°53' W 002°38'512.8
2017-Sep-25 14:00N 49°51' W 002°46'612.9
2017-Sep-25 13:30N 49°49' W 002°55'713.3
2017-Sep-25 13:00N 49°46' W 003°04'713.3
2017-Sep-25 12:30N 49°43' W 003°13'713.4
2017-Sep-25 12:00N 49°39' W 003°22'1213.5
2017-Sep-25 11:09N 49°33' W 003°37'713.6
2017-Sep-25 10:38N 49°30' W 003°47'313.6
2017-Sep-25 10:26N 49°29' W 003°50'2614.0
2017-Sep-25 08:34N 49°16' W 004°25'314.3
2017-Sep-25 08:21N 49°14' W 004°29'614.3
2017-Sep-25 07:54N 49°12' W 004°38'613.9
2017-Sep-25 07:30N 49°08' W 004°45'714.4
2017-Sep-25 06:59N 49°04' W 004°55'613.2
2017-Sep-25 06:30N 49°01' W 005°03'511.0
2017-Sep-25 06:00N 48°58' W 005°10'510.5
2017-Sep-25 05:30N 48°56' W 005°17'510.1
2017-Sep-25 05:00N 48°53' W 005°24'5 9.7
2017-Sep-25 04:30N 48°50' W 005°30'5 9.6
2017-Sep-25 03:58N 48°47' W 005°36'612.5
2017-Sep-25 03:30N 48°42' W 005°40'713.1
2017-Sep-25 03:00N 48°36' W 005°45'712.9
2017-Sep-25 02:26N 48°30' W 005°51'912.5
2017-Sep-25 01:41N 48°22' W 005°58'412.4
2017-Sep-25 01:21N 48°18' W 006°01'  
2017-Sep-20 23:09N 28°43' W 014°43'413.0
2017-Sep-20 22:51N 28°39' W 014°44'513.0
2017-Sep-20 22:30N 28°35' W 014°45'612.9
2017-Sep-20 22:00N 28°29' W 014°47'612.6
2017-Sep-20 21:30N 28°23' W 014°49'612.9
2017-Sep-20 21:00N 28°17' W 014°51'612.9
2017-Sep-20 20:30N 28°11' W 014°54'612.6
2017-Sep-20 20:00N 28°05' W 014°56'713.0
2017-Sep-20 19:30N 27°59' W 014°59'713.1
2017-Sep-20 19:00N 27°52' W 015°01'612.6
2017-Sep-20 18:30N 27°47' W 015°04'612.7
2017-Sep-20 18:00N 27°41' W 015°08'713.2
2017-Sep-20 17:30N 27°36' W 015°12'7013.2
2017-Sep-20 12:11N 26°36' W 015°54'6413.2
2017-Sep-20 07:22N 25°42' W 016°31'11212.8
2017-Sep-19 22:36N 23°57' W 017°16'112.9
2017-Sep-19 22:30N 23°56' W 017°16'4313.1
2017-Sep-19 19:15N 23°14' W 017°27'313.2
2017-Sep-19 19:00N 23°11' W 017°27'4313.3
2017-Sep-19 15:46N 22°29' W 017°38'  

Dump ship's entire track history